weerbeeld Almere Meer informatie weerbeeld Almere


Onweer radar Meer informatie blitzortung!


Regen radar Meer informatie rain snow radar


Apparatuur in gebruik:

Davis VP2

Meteohub

ALIX 1D

Web-Oke


Het weer levert geen direct gevaar op.    Er zijn geen waarschuwingen afgegeven.

METAR rapporten vliegvelden

   
EHAM - Amsterdam/Schiph, Netherlands
Afstand tot: WZW 42 km
Gewijzigd: 20-01-2019 05:55
Helder  
Helder  
   Wind: Oosten 9.3 km/h
Wind: Oosten 9.3 km/h
Temperatuur: -5°C
Voelt als: -9°C
Dauwpunt: -7°C
Vochtigheid: 86%
Barometer: 1015 hPa
Zicht: meer dan 10 km
Bewolking: Helder ft
EHAM 200455Z 09005KT CAVOK M05/M07 Q1015 NOSIG
EHDL - Deelen Rnlafb, Netherlands
Afstand tot: ZO 49 km
Gewijzigd: 20-01-2019 05:55
Helder  
Helder  
   Wind: Oosten 7.4 km/h
Wind: Oosten 7.4 km/h
Temperatuur: -5°C
Voelt als: -8°C
Dauwpunt: -8°C
Vochtigheid: 80%
Barometer: 1015 hPa
Bewolking: Clear
Zicht: meer dan 10 km
Bewolking: Helder ft
EHDL 200455Z AUTO 09004KT 020V130 9999 NCD M05/M08 Q1015 BLU
EHKD - De Kooy (navy), Netherlands
Afstand tot: NW 72 km
Gewijzigd: 20-01-2019 05:55
Helder  
Helder  
   Wind: Oosten 9.3 km/h
Wind: Oosten 9.3 km/h
Temperatuur: -1°C
Voelt als: -4°C
Dauwpunt: -3°C
Vochtigheid: 86%
Barometer: 1015 hPa
Bewolking: Clear
Zicht: meer dan 10 km
Bewolking: Helder ft
EHKD 200455Z AUTO 10005KT 9999 NCD M01/M03 Q1015 BLU
EHRD - Rotterdam Airpor, Netherlands
Afstand tot: ZW 80 km
Gewijzigd: 20-01-2019 05:55
Helder  
Helder  
   Wind: Oosten 11.1 km/h
Wind: Oosten 11.1 km/h
Temperatuur: -6°C
Voelt als: -11°C
Dauwpunt: -7°C
Vochtigheid: 93%
Barometer: 1014 hPa
Bewolking: Clear
Zicht: meer dan 10 km
Bewolking: Helder ft
EHRD 200455Z AUTO 08006KT 9999 NCD M06/M07 Q1014 NOSIG
EHVK - Volkel Rnlafb, Netherlands
Afstand tot: ZZO 87 km
Gewijzigd: 20-01-2019 05:55
Helder  
Helder  
   Wind: ONO 9.3 km/h
Wind: ONO 9.3 km/h
Temperatuur: -6°C
Voelt als: -10°C
Dauwpunt: -7°C
Vochtigheid: 93%
Barometer: 1014 hPa
Bewolking: Clear
Zicht: meer dan 10 km
Bewolking: Helder ft
EHVK 200455Z AUTO 06005KT 9999 NCD M06/M07 Q1014 BLU
EHLW - Leeuwarden Rnlaf, Netherlands
Afstand tot: NNO 95 km
Gewijzigd: 20-01-2019 05:55
Helder  
Helder  
   Wind: Oosten 5.6 km/h
Wind: Oosten 5.6 km/h
Temperatuur: -10°C
Voelt als: -13°C
Dauwpunt: -11°C
Vochtigheid: 92%
Barometer: 1016 hPa
Bewolking: Clear
Zicht: meer dan 10 km
Bewolking: Helder ft
EHLW 200455Z AUTO 08003KT 050V120 9999 NCD M10/M11 Q1016 BLU

Script ontwikkeld door  Saratoga-weather.org Aangepast voor de template door  Weerstation Leuven

U vindt ons ook hier:

Het Weer Aktueel

UK Metoffice

European Weather Network

Weather Underground

AWEKAS